Terminal Aerodrome Forecast
Issued by NWS Dallas/Fort Worth, TX

Home | Current Version | Previous Version | Text Only | Print | Product List | Glossary On
Versions: 1 2 3 4 5 6 7 8 9 10 11 12 13 14 15 16 17 18 19 20 21 22 23 24 25 26
068
FTUS44 KFWD 200524
TAFDFW
TAF
KDFW 200524Z 2006/2112 09010KT P6SM SCT180 BKN250
     FM200700 13012KT P6SM FEW180 BKN250
      TEMPO 2013/2015 BKN015
     FM201500 18015KT P6SM SCT040=

USA.gov is the U.S. government's official web portal to all federal, state and local government web resources and services.